createdAt,value
2019-01-05T00:01:29.969Z,10.33
2019-01-05T00:04:23.077Z,9.63
2019-01-05T00:07:14.409Z,10.37
2019-01-05T00:10:04.025Z,9.03
2019-01-05T00:12:54.392Z,9.10
2019-01-05T00:15:44.273Z,9.37
2019-01-05T00:18:24.997Z,9.07
2019-01-05T00:21:19.483Z,10.07
2019-01-05T00:24:05.925Z,8.77
2019-01-05T00:26:55.853Z,9.07
2019-01-05T00:29:46.390Z,7.00
2019-01-05T00:32:42.580Z,8.03
2019-01-05T00:35:52.901Z,7.77
2019-01-05T00:38:43.056Z,8.70
2019-01-05T00:41:42.247Z,8.20
2019-01-05T00:44:38.305Z,7.00
2019-01-05T00:47:42.087Z,8.07
2019-01-05T00:50:32.398Z,7.33
2019-01-05T00:53:35.908Z,7.27
2019-01-05T00:56:24.253Z,8.60
2019-01-05T00:59:14.388Z,10.17
2019-01-05T01:02:03.913Z,8.60
2019-01-05T01:05:05.943Z,8.67
2019-01-05T01:07:51.585Z,8.53
2019-01-05T01:10:41.548Z,7.70
2019-01-05T01:13:31.557Z,7.83
2019-01-05T01:16:31.876Z,7.30
2019-01-05T01:19:33.331Z,8.17
2019-01-05T01:22:34.725Z,7.23
2019-01-05T01:25:23.220Z,6.67
2019-01-05T01:28:16.198Z,6.57
2019-01-05T01:31:03.942Z,6.30
2019-01-05T01:33:54.557Z,6.17
2019-01-05T01:36:51.827Z,5.50
2019-01-05T01:39:37.102Z,6.33
2019-01-05T01:42:32.774Z,5.10
2019-01-05T01:45:20.104Z,5.97
2019-01-05T01:48:05.585Z,4.40
2019-01-05T01:51:02.467Z,5.00
2019-01-05T01:53:53.965Z,3.97
2019-01-05T01:56:47.285Z,4.47
2019-01-05T01:59:38.532Z,3.73
2019-01-05T02:02:39.446Z,3.47
2019-01-05T02:05:31.489Z,3.40
2019-01-05T02:08:21.507Z,3.40
2019-01-05T02:11:16.303Z,3.77
2019-01-05T02:14:11.905Z,3.13
2019-01-05T02:17:10.680Z,3.30
2019-01-05T02:20:18.434Z,3.10
2019-01-05T02:23:41.504Z,2.97
2019-01-05T02:26:47.145Z,2.67
2019-01-05T02:30:03.024Z,2.40
2019-01-05T02:33:29.434Z,2.50
2019-01-05T02:36:40.144Z,2.27
2019-01-05T02:40:14.913Z,2.50
2019-01-05T02:43:36.619Z,2.40
2019-01-05T02:47:07.214Z,2.97
2019-01-05T02:50:48.377Z,1.97
2019-01-05T02:54:26.968Z,1.90
2019-01-05T02:57:59.616Z,1.93
2019-01-05T03:01:21.905Z,1.80
2019-01-05T03:04:49.657Z,2.03
2019-01-05T03:08:27.055Z,1.90
2019-01-05T03:11:42.077Z,1.93
2019-01-05T03:15:06.006Z,1.40
2019-01-05T03:18:11.282Z,1.70
2019-01-05T03:21:16.961Z,1.30
2019-01-05T03:24:44.702Z,1.57
2019-01-05T03:28:15.607Z,2.03
2019-01-05T03:31:56.272Z,1.70
2019-01-05T03:35:14.921Z,1.50
2019-01-05T03:38:58.050Z,1.90
2019-01-05T03:42:16.627Z,1.97
2019-01-05T03:45:44.573Z,2.47
2019-01-05T03:49:38.718Z,1.97
2019-01-05T03:53:25.004Z,1.70
2019-01-05T03:57:05.734Z,1.93
2019-01-05T04:00:45.590Z,2.07
2019-01-05T04:04:24.073Z,2.20
2019-01-05T04:07:48.790Z,1.73
2019-01-05T04:11:16.195Z,2.13
2019-01-05T04:14:42.456Z,2.53
2019-01-05T04:18:21.646Z,2.80
2019-01-05T04:21:49.578Z,2.43
2019-01-05T04:25:14.212Z,2.67
2019-01-05T04:28:21.809Z,2.60
2019-01-05T04:31:43.869Z,2.97
2019-01-05T04:35:33.214Z,3.40
2019-01-05T04:39:10.857Z,3.60
2019-01-05T04:42:34.672Z,2.63
2019-01-05T04:46:29.640Z,2.97
2019-01-05T04:49:49.446Z,4.17
2019-01-05T04:53:28.461Z,3.30
2019-01-05T04:56:47.500Z,4.00
2019-01-05T05:00:33.482Z,3.97
2019-01-05T05:04:02.101Z,3.47
2019-01-05T05:07:25.602Z,5.03
2019-01-05T05:11:02.617Z,4.30
2019-01-05T05:14:41.310Z,3.90
2019-01-05T05:18:10.418Z,4.30
2019-01-05T05:21:37.103Z,3.47
2019-01-05T05:25:04.024Z,3.83
2019-01-05T05:28:29.583Z,4.03
2019-01-05T05:31:56.012Z,3.77
2019-01-05T05:35:22.762Z,3.83
2019-01-05T05:38:50.248Z,3.13
2019-01-05T05:42:16.346Z,3.17
2019-01-05T05:45:45.634Z,2.90
2019-01-05T05:49:11.562Z,3.03
2019-01-05T05:53:02.086Z,2.67
2019-01-05T05:56:34.160Z,3.30
2019-01-05T06:00:12.135Z,2.77
2019-01-05T06:03:28.419Z,3.17
2019-01-05T06:06:47.926Z,3.13
2019-01-05T06:09:56.454Z,2.70
2019-01-05T06:13:11.439Z,3.47
2019-01-05T06:16:11.393Z,2.73
2019-01-05T06:19:44.696Z,2.90
2019-01-05T06:23:03.289Z,2.67
2019-01-05T06:26:39.749Z,2.73
2019-01-05T06:30:12.995Z,3.80
2019-01-05T06:33:32.086Z,2.83
2019-01-05T06:37:06.764Z,2.97
2019-01-05T06:40:49.206Z,2.20
2019-01-05T06:44:15.373Z,2.57
2019-01-05T06:47:31.853Z,2.90
2019-01-05T06:50:58.154Z,2.57
2019-01-05T06:54:12.333Z,2.83
2019-01-05T06:57:30.829Z,2.77
2019-01-05T07:00:41.306Z,3.13
2019-01-05T07:04:06.324Z,2.93
2019-01-05T07:07:24.508Z,2.80
2019-01-05T07:10:44.909Z,3.10
2019-01-05T07:14:02.705Z,3.90
2019-01-05T07:17:34.109Z,3.50
2019-01-05T07:20:57.765Z,2.73
2019-01-05T07:24:40.508Z,3.23
2019-01-05T07:28:15.753Z,3.50
2019-01-05T07:31:42.320Z,3.80
2019-01-05T07:34:48.521Z,3.00
2019-01-05T07:38:15.237Z,4.47
2019-01-05T07:41:52.806Z,3.47
2019-01-05T07:45:16.322Z,3.90
2019-01-05T07:49:00.062Z,3.30
2019-01-05T07:52:26.430Z,5.70
2019-01-05T07:56:09.632Z,5.63
2019-01-05T07:59:26.261Z,9.90
2019-01-05T08:02:56.965Z,7.23
2019-01-05T08:06:16.007Z,5.07
2019-01-05T08:09:51.521Z,4.90
2019-01-05T08:13:12.139Z,4.67
2019-01-05T08:16:40.853Z,4.53
2019-01-05T08:20:23.844Z,5.27
2019-01-05T08:23:25.193Z,5.37
2019-01-05T08:26:51.871Z,4.93
2019-01-05T08:30:40.809Z,5.07
2019-01-05T08:34:11.586Z,4.50
2019-01-05T08:37:33.406Z,4.70
2019-01-05T08:41:07.805Z,4.90
2019-01-05T08:44:47.185Z,6.00
2019-01-05T08:48:07.332Z,5.73
2019-01-05T08:51:30.630Z,6.10
2019-01-05T08:55:13.247Z,5.33
2019-01-05T08:58:55.472Z,6.17
2019-01-05T09:02:30.086Z,5.50
2019-01-05T09:05:46.173Z,5.37
2019-01-05T09:09:01.380Z,6.30
2019-01-05T09:12:36.794Z,6.20
2019-01-05T09:16:10.728Z,4.73
2019-01-05T09:19:51.099Z,6.20
2019-01-05T09:23:33.470Z,4.73
2019-01-05T09:27:11.925Z,6.10
2019-01-05T09:30:34.046Z,4.90
2019-01-05T09:33:58.478Z,5.50
2019-01-05T09:37:42.344Z,5.17
2019-01-05T09:41:04.876Z,4.60
2019-01-05T09:44:26.270Z,4.47
2019-01-05T09:47:38.337Z,4.33
2019-01-05T09:51:09.791Z,5.73
2019-01-05T09:54:46.693Z,4.23
2019-01-05T09:58:44.017Z,4.40
2019-01-05T10:02:38.876Z,4.50
2019-01-05T10:06:19.381Z,3.77
2019-01-05T10:10:09.920Z,3.93
2019-01-05T10:13:23.977Z,3.93
2019-01-05T10:16:53.044Z,4.57
2019-01-05T10:20:27.024Z,6.00
2019-01-05T10:23:46.490Z,3.13
2019-01-05T10:27:19.722Z,3.63
2019-01-05T10:31:03.754Z,3.63
2019-01-05T10:34:25.468Z,4.00
2019-01-05T10:38:11.292Z,4.37
2019-01-05T10:41:42.279Z,4.27
2019-01-05T10:44:58.855Z,5.23
2019-01-05T10:48:37.949Z,7.83
2019-01-05T10:51:57.006Z,8.10
2019-01-05T10:55:30.600Z,10.30
2019-01-05T10:58:56.181Z,13.00
2019-01-05T11:02:22.178Z,7.47
2019-01-05T11:05:44.942Z,5.37
2019-01-05T11:09:22.544Z,6.13
2019-01-05T11:12:58.406Z,5.23
2019-01-05T11:16:20.957Z,5.40
2019-01-05T11:19:37.711Z,5.57
2019-01-05T11:22:43.977Z,5.40
2019-01-05T11:26:26.948Z,5.13
2019-01-05T11:29:44.389Z,3.83
2019-01-05T11:33:14.242Z,4.30
2019-01-05T11:36:44.950Z,4.20
2019-01-05T11:40:27.279Z,4.10
2019-01-05T11:44:25.552Z,4.50
2019-01-05T11:48:04.891Z,6.20
2019-01-05T11:51:17.094Z,4.93
2019-01-05T11:54:40.188Z,4.10
2019-01-05T11:57:59.372Z,4.07
2019-01-05T12:01:24.134Z,3.53
2019-01-05T12:04:58.165Z,4.07
2019-01-05T12:08:22.407Z,4.03
2019-01-05T12:11:49.160Z,4.73
2019-01-05T12:15:35.947Z,4.30
2019-01-05T12:18:48.988Z,3.53
2019-01-05T12:22:36.994Z,4.80
2019-01-05T12:25:58.837Z,4.00
2019-01-05T12:29:29.880Z,3.70
2019-01-05T12:33:24.341Z,3.90
2019-01-05T12:36:55.211Z,5.50
2019-01-05T12:40:32.161Z,4.07
2019-01-05T12:44:09.746Z,4.53
2019-01-05T12:47:26.625Z,4.13
2019-01-05T12:50:45.138Z,3.93
2019-01-05T12:54:21.977Z,4.13
2019-01-05T12:58:15.034Z,3.80
2019-01-05T13:01:30.197Z,4.50
2019-01-05T13:05:00.758Z,3.33
2019-01-05T13:08:26.980Z,4.10
2019-01-05T13:11:44.418Z,3.83
2019-01-05T13:15:30.198Z,4.23
2019-01-05T13:19:01.757Z,4.43
2019-01-05T13:22:40.529Z,3.27
2019-01-05T13:26:02.652Z,4.63
2019-01-05T13:29:08.911Z,4.87
2019-01-05T13:32:49.681Z,4.67
2019-01-05T13:36:08.669Z,4.33
2019-01-05T13:40:01.298Z,3.27
2019-01-05T13:43:43.913Z,4.67
2019-01-05T13:47:11.537Z,6.40
2019-01-05T13:50:27.894Z,4.63
2019-01-05T13:53:37.585Z,4.10
2019-01-05T13:56:32.903Z,3.73
2019-01-05T13:59:22.606Z,3.40
2019-01-05T14:02:12.518Z,2.73
2019-01-05T14:05:02.073Z,3.93
2019-01-05T14:07:51.744Z,4.60
2019-01-05T14:10:48.954Z,5.93
2019-01-05T14:13:42.173Z,5.37
2019-01-05T14:16:33.513Z,5.93
2019-01-05T14:19:23.322Z,9.90
2019-01-05T14:22:13.242Z,8.70
2019-01-05T14:24:59.141Z,8.73
2019-01-05T14:27:49.142Z,7.93
2019-01-05T14:30:55.486Z,5.67
2019-01-05T14:33:52.564Z,5.53
2019-01-05T14:36:38.613Z,5.20
2019-01-05T14:39:41.705Z,4.87
2019-01-05T14:42:26.249Z,4.10
2019-01-05T14:45:17.584Z,6.03
2019-01-05T14:48:11.690Z,5.40
2019-01-05T14:50:57.840Z,6.23
2019-01-05T14:53:48.835Z,5.57
2019-01-05T14:56:38.685Z,5.13
2019-01-05T14:59:39.124Z,6.07
2019-01-05T15:02:36.415Z,5.97
2019-01-05T15:05:26.364Z,5.13
2019-01-05T15:08:16.098Z,6.10
2019-01-05T15:11:08.029Z,6.60
2019-01-05T15:13:57.937Z,10.23
2019-01-05T15:16:47.869Z,8.40
2019-01-05T15:19:37.579Z,11.40
2019-01-05T15:22:27.426Z,12.40
2019-01-05T15:25:16.996Z,9.80
2019-01-05T15:28:13.829Z,8.73
2019-01-05T15:31:01.330Z,8.70
2019-01-05T15:33:50.960Z,9.03
2019-01-05T15:36:47.857Z,12.97
2019-01-05T15:39:54.236Z,14.10
2019-01-05T15:42:44.090Z,13.27
2019-01-05T15:45:27.625Z,12.53
2019-01-05T15:48:17.536Z,13.60
2019-01-05T15:51:03.382Z,11.43
2019-01-05T15:53:53.248Z,9.87
2019-01-05T15:56:42.726Z,8.37
2019-01-05T15:59:48.286Z,9.57
2019-01-05T16:02:38.266Z,10.80
2019-01-05T16:05:47.754Z,9.13
2019-01-05T16:08:33.973Z,8.87
2019-01-05T16:11:23.794Z,8.73
2019-01-05T16:14:13.653Z,6.73
2019-01-05T16:17:03.599Z,10.10
2019-01-05T16:19:53.407Z,15.47
2019-01-05T16:22:40.254Z,19.83
2019-01-05T16:25:31.577Z,16.70
2019-01-05T16:28:34.607Z,20.03
2019-01-05T16:31:25.936Z,18.27
2019-01-05T16:34:25.883Z,18.10
2019-01-05T16:37:09.303Z,26.33
2019-01-05T16:40:03.214Z,40.60
2019-01-05T16:42:53.139Z,42.57
2019-01-05T16:45:39.052Z,27.53
2019-01-05T16:48:48.280Z,22.57
2019-01-05T16:51:38.040Z,17.70
2019-01-05T16:54:38.421Z,18.70
2019-01-05T16:57:29.642Z,12.67
2019-01-05T17:00:32.896Z,15.30
2019-01-05T17:03:29.885Z,10.60
2019-01-05T17:06:19.496Z,8.97
2019-01-05T17:09:13.770Z,7.63
2019-01-05T17:12:05.084Z,11.63
2019-01-05T17:14:54.587Z,13.43
2019-01-05T17:17:41.903Z,9.33
2019-01-05T17:20:31.563Z,11.07
2019-01-05T17:23:21.141Z,12.93
2019-01-05T17:26:18.184Z,12.17
2019-01-05T17:29:03.461Z,12.30
2019-01-05T17:31:54.819Z,8.93
2019-01-05T17:34:51.831Z,9.00
2019-01-05T17:37:45.441Z,11.70
2019-01-05T17:40:35.043Z,10.77
2019-01-05T17:43:26.370Z,12.73
2019-01-05T17:46:17.048Z,8.67
2019-01-05T17:49:14.530Z,9.93
2019-01-05T17:52:01.444Z,9.87
2019-01-05T17:54:51.570Z,13.07
2019-01-05T17:57:43.889Z,16.40
2019-01-05T18:00:43.588Z,14.33
2019-01-05T18:03:33.207Z,15.67
2019-01-05T18:06:24.694Z,14.47
2019-01-05T18:09:26.869Z,12.73
2019-01-05T18:12:16.613Z,12.83
2019-01-05T18:15:06.513Z,13.97
2019-01-05T18:17:56.417Z,14.30
2019-01-05T18:20:59.368Z,22.07
2019-01-05T18:24:03.023Z,23.13
2019-01-05T18:26:56.955Z,16.80
2019-01-05T18:29:46.701Z,7.13
2019-01-05T18:32:38.293Z,5.70
2019-01-05T18:35:47.557Z,5.80
2019-01-05T18:38:37.089Z,5.83
2019-01-05T18:41:27.102Z,5.40
2019-01-05T18:44:13.908Z,5.00
2019-01-05T18:47:16.913Z,5.00
2019-01-05T18:50:05.898Z,5.57
2019-01-05T18:53:06.151Z,4.53
2019-01-05T18:55:55.881Z,4.43
2019-01-05T18:58:41.977Z,4.77
2019-01-05T19:01:36.062Z,4.50
2019-01-05T19:04:25.878Z,3.90
2019-01-05T19:07:26.969Z,4.00
2019-01-05T19:10:16.953Z,4.27
2019-01-05T19:13:26.348Z,3.07
2019-01-05T19:16:17.686Z,2.60
2019-01-05T19:19:00.824Z,2.17
2019-01-05T19:21:46.503Z,1.53
2019-01-05T19:24:35.128Z,1.43
2019-01-05T19:27:44.371Z,1.37
2019-01-05T19:30:34.113Z,1.27
2019-01-05T19:33:23.670Z,1.73
2019-01-05T19:36:13.246Z,1.30
2019-01-05T19:39:03.637Z,1.27
2019-01-05T19:41:58.616Z,0.90
2019-01-05T19:44:48.325Z,0.80
2019-01-05T19:47:45.884Z,1.00
2019-01-05T19:50:37.753Z,1.00
2019-01-05T19:53:27.717Z,1.40
2019-01-05T19:56:27.554Z,0.90
2019-01-05T19:59:21.603Z,1.10
2019-01-05T20:02:11.471Z,1.37
2019-01-05T20:05:01.676Z,1.07
2019-01-05T20:07:51.636Z,1.30
2019-01-05T20:10:45.878Z,1.63
2019-01-05T20:13:35.822Z,1.40
2019-01-05T20:16:25.346Z,1.50
2019-01-05T20:19:05.400Z,1.70
2019-01-05T20:21:49.711Z,1.80
2019-01-05T20:24:33.734Z,1.63
2019-01-05T20:27:28.425Z,1.50
2019-01-05T20:30:34.365Z,1.93
2019-01-05T20:33:39.774Z,2.07
2019-01-05T20:36:36.610Z,2.30
2019-01-05T20:39:20.516Z,2.37
2019-01-05T20:42:02.114Z,2.10
2019-01-05T20:44:51.921Z,2.50
2019-01-05T20:47:46.077Z,2.53
2019-01-05T20:50:35.873Z,2.43
2019-01-05T20:53:30.158Z,2.43
2019-01-05T20:56:17.507Z,2.90
2019-01-05T20:59:11.483Z,2.73
2019-01-05T21:02:13.186Z,2.40
2019-01-05T21:05:08.996Z,2.63
2019-01-05T21:07:58.865Z,2.50
2019-01-05T21:10:48.721Z,2.87
2019-01-05T21:13:35.577Z,2.20
2019-01-05T21:16:44.960Z,2.10
2019-01-05T21:19:34.466Z,2.10
2019-01-05T21:22:23.957Z,2.73
2019-01-05T21:25:13.849Z,1.47
2019-01-05T21:28:03.639Z,2.60
2019-01-05T21:31:09.967Z,2.00
2019-01-05T21:33:59.728Z,3.20
2019-01-05T21:37:03.089Z,1.37
2019-01-05T21:39:57.129Z,2.93
2019-01-05T21:42:48.485Z,2.23
2019-01-05T21:45:38.049Z,2.80
2019-01-05T21:48:30.308Z,2.13
2019-01-05T21:51:20.110Z,2.07
2019-01-05T21:54:10.037Z,2.90
2019-01-05T21:57:09.987Z,2.90
2019-01-05T21:59:59.678Z,2.70
2019-01-05T22:02:49.149Z,2.83
2019-01-05T22:05:38.701Z,3.13
2019-01-05T22:08:29.164Z,5.53
2019-01-05T22:11:19.093Z,5.67
2019-01-05T22:14:02.943Z,5.57
2019-01-05T22:16:52.846Z,5.53
2019-01-05T22:19:49.270Z,4.67
2019-01-05T22:22:33.364Z,4.10
2019-01-05T22:25:35.326Z,5.60
2019-01-05T22:28:36.914Z,4.87
2019-01-05T22:31:32.197Z,3.57
2019-01-05T22:34:32.870Z,3.47
2019-01-05T22:37:22.754Z,3.20
2019-01-05T22:40:17.027Z,3.30
2019-01-05T22:43:20.098Z,3.40
2019-01-05T22:46:03.388Z,3.83
2019-01-05T22:49:06.533Z,3.90
2019-01-05T22:52:10.071Z,3.97
2019-01-05T22:54:56.044Z,4.10
2019-01-05T22:57:45.786Z,4.87
2019-01-05T23:00:42.655Z,5.17
2019-01-05T23:03:33.994Z,5.37
2019-01-05T23:06:30.024Z,8.47
2019-01-05T23:09:12.148Z,8.63
2019-01-05T23:12:10.402Z,9.33
2019-01-05T23:15:03.301Z,7.97
2019-01-05T23:18:01.444Z,6.60
2019-01-05T23:20:56.474Z,6.07
2019-01-05T23:23:46.706Z,7.53
2019-01-05T23:26:38.037Z,7.87
2019-01-05T23:29:41.469Z,6.00
2019-01-05T23:32:31.185Z,14.37
2019-01-05T23:35:21.062Z,7.00
2019-01-05T23:38:13.914Z,7.30
2019-01-05T23:41:03.709Z,10.97
2019-01-05T23:44:01.752Z,11.27
2019-01-05T23:47:02.205Z,5.97
2019-01-05T23:49:52.121Z,5.87
2019-01-05T23:52:42.153Z,5.93
2019-01-05T23:55:39.353Z,5.13
2019-01-05T23:58:39.742Z,5.20
